sensor_id;sensor_type;location;lat;lon;timestamp;temperature;humidity
52709;DHT22;38606;52.986;6.980;2022-12-10T00:00:26;-1.40;99.90
52709;DHT22;38606;52.986;6.980;2022-12-10T00:02:52;-1.60;99.90
52709;DHT22;38606;52.986;6.980;2022-12-10T00:05:17;-1.50;99.90
52709;DHT22;38606;52.986;6.980;2022-12-10T00:12:35;-1.50;99.90
52709;DHT22;38606;52.986;6.980;2022-12-10T00:22:19;-1.60;99.90
52709;DHT22;38606;52.986;6.980;2022-12-10T00:29:36;-1.60;99.90
52709;DHT22;38606;52.986;6.980;2022-12-10T00:32:02;-1.60;99.90
52709;DHT22;38606;52.986;6.980;2022-12-10T00:41:49;-1.50;99.90
52709;DHT22;38606;52.986;6.980;2022-12-10T00:44:15;-1.70;99.90
52709;DHT22;38606;52.986;6.980;2022-12-10T00:46:41;-1.60;99.90
52709;DHT22;38606;52.986;6.980;2022-12-10T00:49:08;-1.80;99.90
52709;DHT22;38606;52.986;6.980;2022-12-10T00:51:34;-1.80;99.90
52709;DHT22;38606;52.986;6.980;2022-12-10T00:56:30;-1.60;99.90
52709;DHT22;38606;52.986;6.980;2022-12-10T00:58:58;-1.70;99.90
52709;DHT22;38606;52.986;6.980;2022-12-10T01:01:39;-1.70;99.90
52709;DHT22;38606;52.986;6.980;2022-12-10T01:04:09;-2.60;99.90
52709;DHT22;38606;52.986;6.980;2022-12-10T01:06:44;-1.70;99.90
52709;DHT22;38606;52.986;6.980;2022-12-10T01:09:13;-1.50;99.90
52709;DHT22;38606;52.986;6.980;2022-12-10T01:11:41;-1.70;99.90
52709;DHT22;38606;52.986;6.980;2022-12-10T01:14:09;-1.60;99.90
52709;DHT22;38606;52.986;6.980;2022-12-10T01:19:01;-1.50;99.90
52709;DHT22;38606;52.986;6.980;2022-12-10T01:21:28;-1.50;99.90
52709;DHT22;38606;52.986;6.980;2022-12-10T01:23:54;-1.50;99.90
52709;DHT22;38606;52.986;6.980;2022-12-10T01:26:23;-1.50;99.90
52709;DHT22;38606;52.986;6.980;2022-12-10T01:28:50;-1.40;99.90
52709;DHT22;38606;52.986;6.980;2022-12-10T01:31:22;-1.30;99.90
52709;DHT22;38606;52.986;6.980;2022-12-10T01:33:49;-1.20;99.90
52709;DHT22;38606;52.986;6.980;2022-12-10T01:36:20;-1.30;99.90
52709;DHT22;38606;52.986;6.980;2022-12-10T01:38:47;-1.20;99.90
52709;DHT22;38606;52.986;6.980;2022-12-10T01:41:24;-1.10;99.90
52709;DHT22;38606;52.986;6.980;2022-12-10T01:43:56;-1.20;99.90
52709;DHT22;38606;52.986;6.980;2022-12-10T01:46:25;-1.20;99.90
52709;DHT22;38606;52.986;6.980;2022-12-10T01:48:52;-1.00;99.90
52709;DHT22;38606;52.986;6.980;2022-12-10T01:51:18;-1.00;99.90
52709;DHT22;38606;52.986;6.980;2022-12-10T01:53:45;-1.10;99.90
52709;DHT22;38606;52.986;6.980;2022-12-10T01:56:12;-1.00;99.90
52709;DHT22;38606;52.986;6.980;2022-12-10T01:58:38;-0.90;99.90
52709;DHT22;38606;52.986;6.980;2022-12-10T02:03:43;-1.00;99.90
52709;DHT22;38606;52.986;6.980;2022-12-10T02:06:35;-0.90;99.90
52709;DHT22;38606;52.986;6.980;2022-12-10T02:09:23;-0.80;99.90
52709;DHT22;38606;52.986;6.980;2022-12-10T02:22:31;-0.80;99.90
52709;DHT22;38606;52.986;6.980;2022-12-10T02:24:58;0.40;99.90
52709;DHT22;38606;52.986;6.980;2022-12-10T02:27:35;-0.90;99.90
52709;DHT22;38606;52.986;6.980;2022-12-10T02:30:03;-1.00;99.90
52709;DHT22;38606;52.986;6.980;2022-12-10T02:32:36;-0.90;99.90
52709;DHT22;38606;52.986;6.980;2022-12-10T02:35:04;-0.70;99.90
52709;DHT22;38606;52.986;6.980;2022-12-10T02:37:33;-0.90;99.90
52709;DHT22;38606;52.986;6.980;2022-12-10T02:40:08;-0.90;99.90
52709;DHT22;38606;52.986;6.980;2022-12-10T02:42:38;-0.80;99.90
52709;DHT22;38606;52.986;6.980;2022-12-10T02:45:06;-0.80;99.90
52709;DHT22;38606;52.986;6.980;2022-12-10T02:47:33;-0.90;99.90
52709;DHT22;38606;52.986;6.980;2022-12-10T02:52:26;-0.90;99.90
52709;DHT22;38606;52.986;6.980;2022-12-10T02:57:32;-0.90;99.90
52709;DHT22;38606;52.986;6.980;2022-12-10T03:00:22;-0.90;99.90
52709;DHT22;38606;52.986;6.980;2022-12-10T03:03:21;-1.00;99.90
52709;DHT22;38606;52.986;6.980;2022-12-10T03:06:09;-1.00;99.90
52709;DHT22;38606;52.986;6.980;2022-12-10T03:11:15;-1.00;99.90
52709;DHT22;38606;52.986;6.980;2022-12-10T03:13:55;-1.10;99.90
52709;DHT22;38606;52.986;6.980;2022-12-10T03:16:25;-1.10;99.90
52709;DHT22;38606;52.986;6.980;2022-12-10T03:18:58;-1.10;99.90
52709;DHT22;38606;52.986;6.980;2022-12-10T03:21:26;-1.00;99.90
52709;DHT22;38606;52.986;6.980;2022-12-10T03:23:54;-1.00;99.90
52709;DHT22;38606;52.986;6.980;2022-12-10T03:26:21;-1.30;99.90
52709;DHT22;38606;52.986;6.980;2022-12-10T03:28:56;-1.20;99.90
52709;DHT22;38606;52.986;6.980;2022-12-10T03:31:22;-1.20;99.90
52709;DHT22;38606;52.986;6.980;2022-12-10T03:33:49;-1.20;99.90
52709;DHT22;38606;52.986;6.980;2022-12-10T03:41:07;-1.30;99.90
52709;DHT22;38606;52.986;6.980;2022-12-10T03:43:33;-1.30;99.90
52709;DHT22;38606;52.986;6.980;2022-12-10T03:45:58;-1.30;99.90
52709;DHT22;38606;52.986;6.980;2022-12-10T03:48:24;-1.30;99.90
52709;DHT22;38606;52.986;6.980;2022-12-10T03:55:42;-1.40;99.90
52709;DHT22;38606;52.986;6.980;2022-12-10T04:05:26;-1.40;99.90
52709;DHT22;38606;52.986;6.980;2022-12-10T04:18:14;-1.40;99.90
52709;DHT22;38606;52.986;6.980;2022-12-10T04:20:40;-1.40;99.90
52709;DHT22;38606;52.986;6.980;2022-12-10T04:23:24;-1.50;99.90
52709;DHT22;38606;52.986;6.980;2022-12-10T04:28:53;-1.50;99.90
52709;DHT22;38606;52.986;6.980;2022-12-10T04:33:45;-1.40;99.90
52709;DHT22;38606;52.986;6.980;2022-12-10T04:38:36;-1.40;99.90
52709;DHT22;38606;52.986;6.980;2022-12-10T04:43:41;-1.30;99.90
52709;DHT22;38606;52.986;6.980;2022-12-10T04:48:32;-1.30;99.90
52709;DHT22;38606;52.986;6.980;2022-12-10T04:50:58;-1.30;99.90
52709;DHT22;38606;52.986;6.980;2022-12-10T04:53:24;-1.40;99.90
52709;DHT22;38606;52.986;6.980;2022-12-10T04:58:15;-1.10;99.90
52709;DHT22;38606;52.986;6.980;2022-12-10T05:00:41;-1.20;99.90
52709;DHT22;38606;52.986;6.980;2022-12-10T05:03:07;-1.20;99.90
52709;DHT22;38606;52.986;6.980;2022-12-10T05:05:34;-1.30;99.90
52709;DHT22;38606;52.986;6.980;2022-12-10T05:08:00;-1.20;99.90
52709;DHT22;38606;52.986;6.980;2022-12-10T05:10:26;-1.20;99.90
52709;DHT22;38606;52.986;6.980;2022-12-10T05:15:18;-1.30;99.90
52709;DHT22;38606;52.986;6.980;2022-12-10T05:17:44;-1.30;99.90
52709;DHT22;38606;52.986;6.980;2022-12-10T05:20:10;-1.20;99.90
52709;DHT22;38606;52.986;6.980;2022-12-10T05:22:36;-1.40;99.90
52709;DHT22;38606;52.986;6.980;2022-12-10T05:27:46;-1.40;99.90
52709;DHT22;38606;52.986;6.980;2022-12-10T05:30:12;-1.50;99.90
52709;DHT22;38606;52.986;6.980;2022-12-10T05:32:38;-1.40;99.90
52709;DHT22;38606;52.986;6.980;2022-12-10T05:35:07;-1.50;99.90
52709;DHT22;38606;52.986;6.980;2022-12-10T05:37:32;-1.50;99.90
52709;DHT22;38606;52.986;6.980;2022-12-10T05:39:58;-1.60;99.90
52709;DHT22;38606;52.986;6.980;2022-12-10T05:42:24;-1.50;99.90
52709;DHT22;38606;52.986;6.980;2022-12-10T05:44:49;-1.50;99.90
52709;DHT22;38606;52.986;6.980;2022-12-10T05:47:15;-1.60;99.90
52709;DHT22;38606;52.986;6.980;2022-12-10T05:49:41;-1.40;99.90
52709;DHT22;38606;52.986;6.980;2022-12-10T05:52:06;-1.60;99.90
52709;DHT22;38606;52.986;6.980;2022-12-10T05:54:34;-1.50;99.90
52709;DHT22;38606;52.986;6.980;2022-12-10T05:57:00;-1.40;99.90
52709;DHT22;38606;52.986;6.980;2022-12-10T05:59:25;-1.50;99.90
52709;DHT22;38606;52.986;6.980;2022-12-10T06:01:51;-1.50;99.90
52709;DHT22;38606;52.986;6.980;2022-12-10T06:04:17;-1.60;99.90
52709;DHT22;38606;52.986;6.980;2022-12-10T06:09:12;-1.60;99.90
52709;DHT22;38606;52.986;6.980;2022-12-10T06:11:38;-1.60;99.90
52709;DHT22;38606;52.986;6.980;2022-12-10T06:21:22;-1.60;99.90
52709;DHT22;38606;52.986;6.980;2022-12-10T06:23:49;-1.70;99.90
52709;DHT22;38606;52.986;6.980;2022-12-10T06:26:19;-1.60;99.90
52709;DHT22;38606;52.986;6.980;2022-12-10T06:28:46;-1.60;99.90
52709;DHT22;38606;52.986;6.980;2022-12-10T06:31:12;-1.70;99.90
52709;DHT22;38606;52.986;6.980;2022-12-10T06:36:06;-1.80;99.90
52709;DHT22;38606;52.986;6.980;2022-12-10T06:38:32;-1.70;99.90
52709;DHT22;38606;52.986;6.980;2022-12-10T06:40:58;-1.70;99.90
52709;DHT22;38606;52.986;6.980;2022-12-10T06:48:16;-1.70;99.90
52709;DHT22;38606;52.986;6.980;2022-12-10T06:53:08;-1.70;99.90
52709;DHT22;38606;52.986;6.980;2022-12-10T06:55:36;-1.70;99.90
52709;DHT22;38606;52.986;6.980;2022-12-10T06:58:02;-1.60;99.90
52709;DHT22;38606;52.986;6.980;2022-12-10T07:00:28;-1.50;99.90
52709;DHT22;38606;52.986;6.980;2022-12-10T07:05:19;-1.50;99.90
52709;DHT22;38606;52.986;6.980;2022-12-10T07:10:11;-1.50;99.90
52709;DHT22;38606;52.986;6.980;2022-12-10T07:12:37;-1.40;99.90
52709;DHT22;38606;52.986;6.980;2022-12-10T07:15:03;-1.50;99.90
52709;DHT22;38606;52.986;6.980;2022-12-10T07:19:55;-1.30;99.90
52709;DHT22;38606;52.986;6.980;2022-12-10T07:22:20;-1.20;99.90
52709;DHT22;38606;52.986;6.980;2022-12-10T07:24:48;-1.40;99.90
52709;DHT22;38606;52.986;6.980;2022-12-10T07:27:14;-1.30;99.90
52709;DHT22;38606;52.986;6.980;2022-12-10T07:29:39;-1.30;99.90
52709;DHT22;38606;52.986;6.980;2022-12-10T07:32:05;-1.20;99.90
52709;DHT22;38606;52.986;6.980;2022-12-10T07:36:57;-1.20;99.90
52709;DHT22;38606;52.986;6.980;2022-12-10T07:39:25;-1.10;99.90
52709;DHT22;38606;52.986;6.980;2022-12-10T07:41:52;-1.40;99.90
52709;DHT22;38606;52.986;6.980;2022-12-10T07:44:19;-1.30;99.90
52709;DHT22;38606;52.986;6.980;2022-12-10T07:46:47;-1.20;99.90
52709;DHT22;38606;52.986;6.980;2022-12-10T07:49:13;-1.40;99.90
52709;DHT22;38606;52.986;6.980;2022-12-10T07:51:39;-1.30;99.90
52709;DHT22;38606;52.986;6.980;2022-12-10T07:54:05;-1.40;99.90
52709;DHT22;38606;52.986;6.980;2022-12-10T07:56:30;-1.30;99.90
52709;DHT22;38606;52.986;6.980;2022-12-10T07:58:56;-1.40;99.90
52709;DHT22;38606;52.986;6.980;2022-12-10T08:01:25;-1.50;99.90
52709;DHT22;38606;52.986;6.980;2022-12-10T08:03:53;-1.40;99.90
52709;DHT22;38606;52.986;6.980;2022-12-10T08:06:20;-1.30;99.90
52709;DHT22;38606;52.986;6.980;2022-12-10T08:08:47;-1.50;99.90
52709;DHT22;38606;52.986;6.980;2022-12-10T08:11:14;-1.40;99.90
52709;DHT22;38606;52.986;6.980;2022-12-10T08:13:41;-1.50;99.90
52709;DHT22;38606;52.986;6.980;2022-12-10T08:16:10;-1.30;99.90
52709;DHT22;38606;52.986;6.980;2022-12-10T08:18:37;-1.30;99.90
52709;DHT22;38606;52.986;6.980;2022-12-10T08:21:08;-1.40;99.90
52709;DHT22;38606;52.986;6.980;2022-12-10T08:23:34;-1.40;99.90
52709;DHT22;38606;52.986;6.980;2022-12-10T08:26:05;-1.40;99.90
52709;DHT22;38606;52.986;6.980;2022-12-10T08:28:32;-1.50;99.90
52709;DHT22;38606;52.986;6.980;2022-12-10T08:35:50;-1.40;99.90
52709;DHT22;38606;52.986;6.980;2022-12-10T08:40:42;-1.30;99.90
52709;DHT22;38606;52.986;6.980;2022-12-10T08:43:08;-1.30;99.90
52709;DHT22;38606;52.986;6.980;2022-12-10T08:45:34;-1.30;99.90
52709;DHT22;38606;52.986;6.980;2022-12-10T08:48:01;-1.30;99.90
52709;DHT22;38606;52.986;6.980;2022-12-10T08:50:28;-1.20;99.90
52709;DHT22;38606;52.986;6.980;2022-12-10T08:52:54;-1.30;99.90
52709;DHT22;38606;52.986;6.980;2022-12-10T08:55:20;-1.20;99.90
52709;DHT22;38606;52.986;6.980;2022-12-10T08:57:45;-1.10;99.90
52709;DHT22;38606;52.986;6.980;2022-12-10T09:00:12;-1.10;99.90
52709;DHT22;38606;52.986;6.980;2022-12-10T09:02:39;-1.00;99.90
52709;DHT22;38606;52.986;6.980;2022-12-10T09:05:05;-1.10;99.90
52709;DHT22;38606;52.986;6.980;2022-12-10T09:07:31;-1.00;99.90
52709;DHT22;38606;52.986;6.980;2022-12-10T09:09:57;-1.00;99.90
52709;DHT22;38606;52.986;6.980;2022-12-10T09:12:23;-1.00;99.90
52709;DHT22;38606;52.986;6.980;2022-12-10T09:17:14;-0.80;99.90
52709;DHT22;38606;52.986;6.980;2022-12-10T09:19:40;-0.90;99.90
52709;DHT22;38606;52.986;6.980;2022-12-10T09:22:06;-0.70;99.90
52709;DHT22;38606;52.986;6.980;2022-12-10T09:24:32;-0.60;99.90
52709;DHT22;38606;52.986;6.980;2022-12-10T09:26:58;-0.80;99.90
52709;DHT22;38606;52.986;6.980;2022-12-10T09:29:23;-0.70;99.90
52709;DHT22;38606;52.986;6.980;2022-12-10T09:31:52;-0.70;99.90
52709;DHT22;38606;52.986;6.980;2022-12-10T09:34:18;-0.30;99.90
52709;DHT22;38606;52.986;6.980;2022-12-10T09:36:44;-0.50;99.90
52709;DHT22;38606;52.986;6.980;2022-12-10T09:39:11;-0.60;99.90
52709;DHT22;38606;52.986;6.980;2022-12-10T09:45:03;-0.50;99.90
52709;DHT22;38606;52.986;6.980;2022-12-10T09:47:52;-0.30;99.90
52709;DHT22;38606;52.986;6.980;2022-12-10T09:53:18;-0.50;99.90
52709;DHT22;38606;52.986;6.980;2022-12-10T09:55:46;-0.40;99.90
52709;DHT22;38606;52.986;6.980;2022-12-10T09:58:22;0.50;99.90
52709;DHT22;38606;52.986;6.980;2022-12-10T10:00:59;-0.30;99.90
52709;DHT22;38606;52.986;6.980;2022-12-10T10:03:25;-0.20;99.90
52709;DHT22;38606;52.986;6.980;2022-12-10T10:05:53;-0.20;99.90
52709;DHT22;38606;52.986;6.980;2022-12-10T10:10:50;-0.20;99.90
52709;DHT22;38606;52.986;6.980;2022-12-10T10:15:55;1.50;99.90
52709;DHT22;38606;52.986;6.980;2022-12-10T10:18:33;0.00;99.90
52709;DHT22;38606;52.986;6.980;2022-12-10T10:21:18;0.50;99.90
52709;DHT22;38606;52.986;6.980;2022-12-10T10:23:46;0.30;99.90
52709;DHT22;38606;52.986;6.980;2022-12-10T10:26:12;0.10;99.90
52709;DHT22;38606;52.986;6.980;2022-12-10T10:28:39;0.10;99.90
52709;DHT22;38606;52.986;6.980;2022-12-10T10:31:28;0.50;99.90
52709;DHT22;38606;52.986;6.980;2022-12-10T10:33:56;0.40;99.90
52709;DHT22;38606;52.986;6.980;2022-12-10T10:36:28;0.30;99.90
52709;DHT22;38606;52.986;6.980;2022-12-10T10:38:54;0.60;99.90
52709;DHT22;38606;52.986;6.980;2022-12-10T10:41:20;0.70;99.90
52709;DHT22;38606;52.986;6.980;2022-12-10T10:43:49;0.60;99.90
52709;DHT22;38606;52.986;6.980;2022-12-10T10:46:22;0.70;99.90
52709;DHT22;38606;52.986;6.980;2022-12-10T10:48:48;0.80;99.90
52709;DHT22;38606;52.986;6.980;2022-12-10T10:51:19;0.80;99.90
52709;DHT22;38606;52.986;6.980;2022-12-10T10:53:55;0.90;99.90
52709;DHT22;38606;52.986;6.980;2022-12-10T11:01:50;0.90;99.90
52709;DHT22;38606;52.986;6.980;2022-12-10T11:04:28;0.70;99.90
52709;DHT22;38606;52.986;6.980;2022-12-10T11:07:01;0.80;99.90
52709;DHT22;38606;52.986;6.980;2022-12-10T11:09:29;1.10;99.90
52709;DHT22;38606;52.986;6.980;2022-12-10T11:12:10;1.10;99.90
52709;DHT22;38606;52.986;6.980;2022-12-10T11:14:46;1.00;99.90
52709;DHT22;38606;52.986;6.980;2022-12-10T11:19:56;1.00;99.90
52709;DHT22;38606;52.986;6.980;2022-12-10T11:22:31;1.10;99.90
52709;DHT22;38606;52.986;6.980;2022-12-10T11:24:58;1.00;99.90
52709;DHT22;38606;52.986;6.980;2022-12-10T11:27:41;2.60;99.90
52709;DHT22;38606;52.986;6.980;2022-12-10T11:30:25;1.10;99.90
52709;DHT22;38606;52.986;6.980;2022-12-10T11:41:32;1.20;99.90
52709;DHT22;38606;52.986;6.980;2022-12-10T11:52:08;1.40;99.90
52709;DHT22;38606;52.986;6.980;2022-12-10T12:14:34;1.50;99.90
52709;DHT22;38606;52.986;6.980;2022-12-10T12:19:58;1.60;99.90
52709;DHT22;38606;52.986;6.980;2022-12-10T12:22:29;1.50;99.90
52709;DHT22;38606;52.986;6.980;2022-12-10T12:25:05;1.30;99.90
52709;DHT22;38606;52.986;6.980;2022-12-10T12:27:51;1.70;99.90
52709;DHT22;38606;52.986;6.980;2022-12-10T12:30:22;2.50;99.90
52709;DHT22;38606;52.986;6.980;2022-12-10T12:32:59;2.30;99.90
52709;DHT22;38606;52.986;6.980;2022-12-10T12:35:48;1.50;99.90
52709;DHT22;38606;52.986;6.980;2022-12-10T12:38:46;1.50;99.90
52709;DHT22;38606;52.986;6.980;2022-12-10T12:44:02;1.40;99.90
52709;DHT22;38606;52.986;6.980;2022-12-10T12:46:38;1.50;99.90
52709;DHT22;38606;52.986;6.980;2022-12-10T12:49:24;1.50;99.90
52709;DHT22;38606;52.986;6.980;2022-12-10T12:54:22;1.30;99.90
52709;DHT22;38606;52.986;6.980;2022-12-10T12:57:05;1.20;99.90
52709;DHT22;38606;52.986;6.980;2022-12-10T13:00:02;1.30;99.90
52709;DHT22;38606;52.986;6.980;2022-12-10T13:02:57;1.30;99.90
52709;DHT22;38606;52.986;6.980;2022-12-10T13:05:28;1.10;99.90
52709;DHT22;38606;52.986;6.980;2022-12-10T13:13:24;0.90;99.90
52709;DHT22;38606;52.986;6.980;2022-12-10T13:15:50;1.10;99.90
52709;DHT22;38606;52.986;6.980;2022-12-10T13:20:52;1.00;99.90
52709;DHT22;38606;52.986;6.980;2022-12-10T13:23:48;-0.40;99.90
52709;DHT22;38606;52.986;6.980;2022-12-10T13:26:29;1.70;99.90
52709;DHT22;38606;52.986;6.980;2022-12-10T13:29:12;2.00;99.90
52709;DHT22;38606;52.986;6.980;2022-12-10T13:31:39;2.00;99.90
52709;DHT22;38606;52.986;6.980;2022-12-10T13:34:20;2.40;99.90
52709;DHT22;38606;52.986;6.980;2022-12-10T13:39:34;0.70;99.90
52709;DHT22;38606;52.986;6.980;2022-12-10T13:42:25;2.40;99.90
52709;DHT22;38606;52.986;6.980;2022-12-10T13:48:17;0.70;99.90
52709;DHT22;38606;52.986;6.980;2022-12-10T13:51:09;0.70;99.90
52709;DHT22;38606;52.986;6.980;2022-12-10T13:56:30;0.60;99.90
52709;DHT22;38606;52.986;6.980;2022-12-10T14:07:25;1.00;99.90
52709;DHT22;38606;52.986;6.980;2022-12-10T14:09:53;0.80;99.90
52709;DHT22;38606;52.986;6.980;2022-12-10T14:12:31;0.80;99.90
52709;DHT22;38606;52.986;6.980;2022-12-10T14:15:07;1.60;99.90
52709;DHT22;38606;52.986;6.980;2022-12-10T14:17:38;0.70;99.90
52709;DHT22;38606;52.986;6.980;2022-12-10T14:20:07;0.80;99.90
52709;DHT22;38606;52.986;6.980;2022-12-10T14:22:37;0.90;99.90
52709;DHT22;38606;52.986;6.980;2022-12-10T14:25:09;0.60;99.90
52709;DHT22;38606;52.986;6.980;2022-12-10T14:27:37;0.60;99.90
52709;DHT22;38606;52.986;6.980;2022-12-10T14:30:23;1.30;99.90
52709;DHT22;38606;52.986;6.980;2022-12-10T14:32:50;0.80;99.90
52709;DHT22;38606;52.986;6.980;2022-12-10T14:35:27;0.70;99.90
52709;DHT22;38606;52.986;6.980;2022-12-10T14:37:58;1.30;99.90
52709;DHT22;38606;52.986;6.980;2022-12-10T14:40:27;0.90;99.90
52709;DHT22;38606;52.986;6.980;2022-12-10T14:43:04;2.00;99.90
52709;DHT22;38606;52.986;6.980;2022-12-10T14:45:45;0.80;99.90
52709;DHT22;38606;52.986;6.980;2022-12-10T14:48:12;0.90;99.90
52709;DHT22;38606;52.986;6.980;2022-12-10T14:50:39;1.70;99.90
52709;DHT22;38606;52.986;6.980;2022-12-10T14:53:14;0.90;99.90
52709;DHT22;38606;52.986;6.980;2022-12-10T14:55:40;0.90;99.90
52709;DHT22;38606;52.986;6.980;2022-12-10T14:58:11;0.80;99.90
52709;DHT22;38606;52.986;6.980;2022-12-10T15:00:40;0.90;99.90
52709;DHT22;38606;52.986;6.980;2022-12-10T15:03:11;2.00;99.90
52709;DHT22;38606;52.986;6.980;2022-12-10T15:05:37;1.80;99.90
52709;DHT22;38606;52.986;6.980;2022-12-10T15:08:13;0.50;99.90
52709;DHT22;38606;52.986;6.980;2022-12-10T15:10:41;0.70;99.90
52709;DHT22;38606;52.986;6.980;2022-12-10T15:13:37;0.60;99.90
52709;DHT22;38606;52.986;6.980;2022-12-10T15:16:04;0.70;99.90
52709;DHT22;38606;52.986;6.980;2022-12-10T15:18:37;0.70;99.90
52709;DHT22;38606;52.986;6.980;2022-12-10T15:21:08;0.80;99.90
52709;DHT22;38606;52.986;6.980;2022-12-10T15:23:35;0.50;99.90
52709;DHT22;38606;52.986;6.980;2022-12-10T15:26:13;0.50;99.90
52709;DHT22;38606;52.986;6.980;2022-12-10T15:28:40;0.60;99.90
52709;DHT22;38606;52.986;6.980;2022-12-10T15:34:15;0.50;99.90
52709;DHT22;38606;52.986;6.980;2022-12-10T15:36:55;0.60;99.90
52709;DHT22;38606;52.986;6.980;2022-12-10T15:42:00;0.60;99.90
52709;DHT22;38606;52.986;6.980;2022-12-10T15:49:38;0.60;99.90
52709;DHT22;38606;52.986;6.980;2022-12-10T15:52:04;0.50;99.90
52709;DHT22;38606;52.986;6.980;2022-12-10T15:56:58;0.60;99.90
52709;DHT22;38606;52.986;6.980;2022-12-10T15:59:24;0.40;99.90
52709;DHT22;38606;52.986;6.980;2022-12-10T16:01:50;0.50;99.90
52709;DHT22;38606;52.986;6.980;2022-12-10T16:04:16;0.10;99.90
52709;DHT22;38606;52.986;6.980;2022-12-10T16:06:41;0.00;99.90
52709;DHT22;38606;52.986;6.980;2022-12-10T16:09:09;1.80;99.90
52709;DHT22;38606;52.986;6.980;2022-12-10T16:11:35;0.40;99.90
52709;DHT22;38606;52.986;6.980;2022-12-10T16:14:01;1.60;99.90
52709;DHT22;38606;52.986;6.980;2022-12-10T16:16:28;0.30;99.90
52709;DHT22;38606;52.986;6.980;2022-12-10T16:18:54;0.30;99.90
52709;DHT22;38606;52.986;6.980;2022-12-10T16:21:20;0.30;99.90
52709;DHT22;38606;52.986;6.980;2022-12-10T16:23:46;0.40;99.90
52709;DHT22;38606;52.986;6.980;2022-12-10T16:26:14;-0.70;99.90
52709;DHT22;38606;52.986;6.980;2022-12-10T16:28:42;1.20;99.90
52709;DHT22;38606;52.986;6.980;2022-12-10T16:31:10;0.20;99.90
52709;DHT22;38606;52.986;6.980;2022-12-10T16:33:36;-1.30;99.90
52709;DHT22;38606;52.986;6.980;2022-12-10T16:36:02;1.20;99.90
52709;DHT22;38606;52.986;6.980;2022-12-10T16:38:28;0.10;99.90
52709;DHT22;38606;52.986;6.980;2022-12-10T16:40:54;1.40;99.90
52709;DHT22;38606;52.986;6.980;2022-12-10T16:43:25;1.00;99.90
52709;DHT22;38606;52.986;6.980;2022-12-10T16:45:52;0.20;99.90
52709;DHT22;38606;52.986;6.980;2022-12-10T16:48:18;0.20;99.90
52709;DHT22;38606;52.986;6.980;2022-12-10T16:50:44;0.00;99.90
52709;DHT22;38606;52.986;6.980;2022-12-10T16:53:16;0.20;99.90
52709;DHT22;38606;52.986;6.980;2022-12-10T16:55:42;0.20;99.90
52709;DHT22;38606;52.986;6.980;2022-12-10T16:58:12;-0.10;99.90
52709;DHT22;38606;52.986;6.980;2022-12-10T17:00:40;0.00;99.90
52709;DHT22;38606;52.986;6.980;2022-12-10T17:03:10;1.50;99.90
52709;DHT22;38606;52.986;6.980;2022-12-10T17:05:42;0.20;99.90
52709;DHT22;38606;52.986;6.980;2022-12-10T17:08:09;0.30;99.90
52709;DHT22;38606;52.986;6.980;2022-12-10T17:10:35;-0.90;99.90
52709;DHT22;38606;52.986;6.980;2022-12-10T17:13:22;0.00;99.90
52709;DHT22;38606;52.986;6.980;2022-12-10T17:15:48;0.00;99.90
52709;DHT22;38606;52.986;6.980;2022-12-10T17:18:16;0.20;99.90
52709;DHT22;38606;52.986;6.980;2022-12-10T17:20:46;0.20;99.90
52709;DHT22;38606;52.986;6.980;2022-12-10T17:23:12;0.20;99.90
52709;DHT22;38606;52.986;6.980;2022-12-10T17:25:39;0.20;99.90
52709;DHT22;38606;52.986;6.980;2022-12-10T17:28:08;1.00;99.90
52709;DHT22;38606;52.986;6.980;2022-12-10T17:30:36;0.10;99.90
52709;DHT22;38606;52.986;6.980;2022-12-10T17:33:02;0.10;99.90
52709;DHT22;38606;52.986;6.980;2022-12-10T17:35:28;0.10;99.90
52709;DHT22;38606;52.986;6.980;2022-12-10T17:37:54;0.20;99.90
52709;DHT22;38606;52.986;6.980;2022-12-10T17:40:22;0.20;99.90
52709;DHT22;38606;52.986;6.980;2022-12-10T17:42:49;0.10;99.90
52709;DHT22;38606;52.986;6.980;2022-12-10T17:45:18;1.20;99.90
52709;DHT22;38606;52.986;6.980;2022-12-10T17:47:44;-0.10;99.90
52709;DHT22;38606;52.986;6.980;2022-12-10T17:50:26;0.00;99.90
52709;DHT22;38606;52.986;6.980;2022-12-10T17:52:56;0.20;99.90
52709;DHT22;38606;52.986;6.980;2022-12-10T17:55:24;0.00;99.90
52709;DHT22;38606;52.986;6.980;2022-12-10T17:57:50;0.00;99.90
52709;DHT22;38606;52.986;6.980;2022-12-10T18:00:20;-0.20;99.90
52709;DHT22;38606;52.986;6.980;2022-12-10T18:02:47;-0.20;99.90
52709;DHT22;38606;52.986;6.980;2022-12-10T18:05:14;-0.20;99.90
52709;DHT22;38606;52.986;6.980;2022-12-10T18:07:40;-0.30;99.90
52709;DHT22;38606;52.986;6.980;2022-12-10T18:10:20;-0.10;99.90
52709;DHT22;38606;52.986;6.980;2022-12-10T18:12:47;-0.30;99.90
52709;DHT22;38606;52.986;6.980;2022-12-10T18:15:16;-0.20;99.90
52709;DHT22;38606;52.986;6.980;2022-12-10T18:17:45;-0.40;99.90
52709;DHT22;38606;52.986;6.980;2022-12-10T18:20:23;-0.30;99.90
52709;DHT22;38606;52.986;6.980;2022-12-10T18:22:50;-0.30;99.90
52709;DHT22;38606;52.986;6.980;2022-12-10T18:25:16;-0.20;99.90
52709;DHT22;38606;52.986;6.980;2022-12-10T18:27:43;-0.30;99.90
52709;DHT22;38606;52.986;6.980;2022-12-10T18:30:13;-0.20;99.90
52709;DHT22;38606;52.986;6.980;2022-12-10T18:32:39;1.70;99.90
52709;DHT22;38606;52.986;6.980;2022-12-10T18:35:05;-0.20;99.90
52709;DHT22;38606;52.986;6.980;2022-12-10T18:37:31;-0.10;99.90
52709;DHT22;38606;52.986;6.980;2022-12-10T18:39:56;1.40;99.90
52709;DHT22;38606;52.986;6.980;2022-12-10T18:42:22;-0.20;99.90
52709;DHT22;38606;52.986;6.980;2022-12-10T18:44:48;-0.20;99.90
52709;DHT22;38606;52.986;6.980;2022-12-10T18:47:14;-0.20;99.90
52709;DHT22;38606;52.986;6.980;2022-12-10T18:49:40;0.20;99.90
52709;DHT22;38606;52.986;6.980;2022-12-10T18:52:06;0.10;99.90
52709;DHT22;38606;52.986;6.980;2022-12-10T18:54:31;-0.20;99.90
52709;DHT22;38606;52.986;6.980;2022-12-10T18:56:59;-0.30;99.90
52709;DHT22;38606;52.986;6.980;2022-12-10T18:59:25;-0.20;99.90
52709;DHT22;38606;52.986;6.980;2022-12-10T19:01:51;-0.20;99.90
52709;DHT22;38606;52.986;6.980;2022-12-10T19:04:17;0.80;99.90
52709;DHT22;38606;52.986;6.980;2022-12-10T19:06:42;-0.10;99.90
52709;DHT22;38606;52.986;6.980;2022-12-10T19:09:16;0.00;99.90
52709;DHT22;38606;52.986;6.980;2022-12-10T19:11:44;0.90;99.90
52709;DHT22;38606;52.986;6.980;2022-12-10T19:14:15;-0.10;99.90
52709;DHT22;38606;52.986;6.980;2022-12-10T19:16:41;0.80;99.90
52709;DHT22;38606;52.986;6.980;2022-12-10T19:19:13;-0.20;99.90
52709;DHT22;38606;52.986;6.980;2022-12-10T19:21:39;0.00;99.90
52709;DHT22;38606;52.986;6.980;2022-12-10T19:24:05;-0.10;99.90
52709;DHT22;38606;52.986;6.980;2022-12-10T19:26:33;-0.30;99.90
52709;DHT22;38606;52.986;6.980;2022-12-10T19:29:01;-0.20;99.90
52709;DHT22;38606;52.986;6.980;2022-12-10T19:31:29;-0.20;99.90
52709;DHT22;38606;52.986;6.980;2022-12-10T19:33:55;-0.20;99.90
52709;DHT22;38606;52.986;6.980;2022-12-10T19:36:26;1.60;99.90
52709;DHT22;38606;52.986;6.980;2022-12-10T19:38:53;1.20;99.90
52709;DHT22;38606;52.986;6.980;2022-12-10T19:41:19;-0.40;99.90
52709;DHT22;38606;52.986;6.980;2022-12-10T19:43:45;1.00;99.90
52709;DHT22;38606;52.986;6.980;2022-12-10T19:46:19;0.10;99.90
52709;DHT22;38606;52.986;6.980;2022-12-10T19:48:46;-0.10;99.90
52709;DHT22;38606;52.986;6.980;2022-12-10T19:51:12;-0.30;99.90